Monday, October 23, 2017, 1:18 PM EDT
Back to Local

KIJD, Willimantic Windham Airport

Location: North Windham, CT, United States Lat: 41.75
Local Time: 1:18 PM EDT (17:18 GMT) Lon: -72.183
Time Zone: US/Eastern Elev: 246 ft

Show me the last for .
Show Decoded

2017-10-23 12:52 METAR KIJD 231652Z AUTO 18007KT 140V210 10SM FEW025 BKN044 22/15 A3028 RMK AO2
                 SLP252 T02170150 =
2017-10-23 11:52 METAR KIJD 231552Z AUTO 17007KT 10SM FEW014 20/15 A3031 RMK AO2 SLP262 T02000150
                 =
2017-10-23 11:30 METAR KIJD 231530Z AUTO VRB06KT 10SM SCT011 19/16 A3032 RMK AO2 T01940156 =
2017-10-23 11:06 METAR KIJD 231506Z AUTO VRB04KT 10SM SCT006 BKN013 BKN030 17/15 A3033 RMK AO2
                 T01720150 =
2017-10-23 10:52 METAR KIJD 231452Z AUTO 22003KT 10SM BKN006 OVC013 15/14 A3034 RMK AO2 CIG
                 003V008 SLP274 T01500144 58012 =
2017-10-23 09:52 METAR KIJD 231352Z AUTO 00000KT 6SM BR OVC003 13/13 A3036 RMK AO2 SLP280
                 T01280128 =
2017-10-23 09:45 METAR KIJD 231345Z AUTO 00000KT 5SM BR OVC002 13/13 A3036 RMK AO2 T01280128 =
2017-10-23 09:36 METAR KIJD 231336Z AUTO 00000KT 2 1/2SM BR OVC002 12/12 A3037 RMK AO2 T01220122
                 =
2017-10-23 09:27 METAR KIJD 231327Z AUTO 00000KT 1SM BR VV002 12/12 A3037 RMK AO2 T01220122 =
2017-10-23 08:52 METAR KIJD 231252Z AUTO 00000KT 1/4SM FG VV002 12/12 A3037 RMK AO2 SLP284
                 T01170117 =
2017-10-23 07:52 METAR KIJD 231152Z AUTO 00000KT 1/4SM FG VV003 11/11 A3037 RMK AO2 SLP286
                 T01060106 10106 20072 53002 =
2017-10-23 07:16 METAR KIJD 231116Z AUTO 00000KT 1/4SM FG VV004 10/10 A3037 RMK AO2 T01000100 =
2017-10-23 07:03 METAR KIJD 231103Z AUTO 00000KT 3/4SM BR OVC002 10/10 A3037 RMK AO2 T01000100 =
2017-10-23 06:52 METAR KIJD 231052Z AUTO 00000KT 1SM BR OVC002 10/10 A3037 RMK AO2 SLP284
                 T01000100 =
2017-10-23 06:26 METAR KIJD 231026Z AUTO 00000KT 1SM BR OVC002 10/10 A3037 RMK AO2 T01000100 =
2017-10-23 06:04 METAR KIJD 231004Z AUTO 00000KT 3/4SM BR VV003 10/10 A3037 RMK AO2 T01000100 =
2017-10-23 05:52 METAR KIJD 230952Z AUTO 00000KT 1/4SM FG VV003 10/10 A3037 RMK AO2 SLP282
                 T01000100 =
2017-10-23 04:52 METAR KIJD 230852Z AUTO 00000KT 1/4SM FG VV002 09/09 A3037 RMK AO2 SLP283
                 T00940094 58007 =
2017-10-23 03:52 METAR KIJD 230752Z AUTO 01003KT 1/4SM FG VV002 08/08 A3037 RMK AO2 SLP284
                 T00830083 =
2017-10-23 03:39 METAR KIJD 230739Z AUTO 00000KT 1/4SM FG VV002 08/08 A3038 RMK AO2 T00830083 =
2017-10-23 03:29 METAR KIJD 230729Z AUTO 34003KT 1 1/2SM BR OVC003 08/08 A3038 RMK AO2 T00830083
                 =
2017-10-23 03:07 METAR KIJD 230707Z AUTO 00000KT 10SM OVC003 08/08 A3038 RMK AO2 T00830078 =
2017-10-23 02:52 METAR KIJD 230652Z AUTO 00000KT 10SM OVC005 08/07 A3039 RMK AO2 SLP289 T00780072
                 =
2017-10-23 02:39 METAR KIJD 230639Z AUTO 00000KT 10SM BKN005 08/07 A3039 RMK AO2 T00780067 =
2017-10-23 02:31 METAR KIJD 230631Z AUTO 00000KT 10SM SCT005 08/07 A3039 RMK AO2 T00780067 =
2017-10-23 01:52 METAR KIJD 230552Z AUTO 00000KT 10SM CLR 09/08 A3039 RMK AO2 SLP290 T00890078
                 10156 20072 58005 =
2017-10-23 00:52 METAR KIJD 230452Z AUTO 00000KT 10SM CLR 09/08 A3040 RMK AO2 SLP294 T00890078
                 402720056 =
2017-10-22 23:52 METAR KIJD 230352Z AUTO 00000KT 10SM CLR 09/08 A3041 RMK AO2 SLP297 T00890078 =
2017-10-22 22:52 METAR KIJD 230252Z AUTO 00000KT 10SM CLR 11/09 A3041 RMK AO2 SLP296 T01060089
                 50009 =
2017-10-22 21:52 METAR KIJD 230152Z AUTO 06003KT 10SM CLR 11/09 A3041 RMK AO2 SLP297 T01060089 =
2017-10-22 20:52 METAR KIJD 230052Z AUTO 06003KT 10SM CLR 12/09 A3039 RMK AO2 SLP292 T01220094 =
2017-10-22 19:52 METAR KIJD 222352Z AUTO 00000KT 10SM CLR 16/10 A3038 RMK AO2 SLP287 T01560100
                 10272 20150 53005 =
2017-10-22 18:52 METAR KIJD 222252Z AUTO 00000KT 10SM CLR 17/09 A3037 RMK AO2 SLP285 T01670094 =
2017-10-22 17:52 METAR KIJD 222152Z AUTO 17003KT 10SM CLR 22/07 A3037 RMK AO2 SLP283 T02220067 =
2017-10-22 16:52 METAR KIJD 222052Z AUTO 16004KT 10SM CLR 24/08 A3036 RMK AO2 SLP281 T02390083
                 53000 =
2017-10-22 15:52 METAR KIJD 221952Z AUTO 18005KT 10SM CLR 26/06 A3036 RMK AO2 SLP279 T02560061 =
2017-10-22 14:52 METAR KIJD 221852Z AUTO 00000KT 10SM CLR 26/03 A3036 RMK AO2 SLP279 T02610033 =
2017-10-22 13:52 METAR KIJD 221752Z AUTO 20005KT 10SM CLR 27/01 A3036 RMK AO2 SLP281 T02670006
                 10272 20067 58019 =

Support USWX by starting your Amazon purchase here.